createdAt,value
2023-03-18T00:01:09.135Z,3.13
2023-03-18T00:03:37.683Z,2.80
2023-03-18T00:06:11.930Z,3.67
2023-03-18T00:08:46.521Z,5.23
2023-03-18T00:11:17.788Z,2.80
2023-03-18T00:13:46.803Z,3.37
2023-03-18T00:16:15.042Z,2.70
2023-03-18T00:18:50.095Z,3.30
2023-03-18T00:21:21.242Z,3.57
2023-03-18T00:23:57.032Z,2.90
2023-03-18T00:26:31.292Z,3.20
2023-03-18T00:29:00.202Z,3.87
2023-03-18T00:31:30.092Z,2.43
2023-03-18T00:34:01.664Z,3.47
2023-03-18T00:36:45.786Z,3.50
2023-03-18T00:39:26.657Z,2.87
2023-03-18T00:42:10.912Z,2.73
2023-03-18T00:44:45.293Z,4.27
2023-03-18T00:47:14.950Z,3.43
2023-03-18T00:49:44.221Z,3.90
2023-03-18T00:52:19.386Z,3.33
2023-03-18T00:54:50.825Z,3.33
2023-03-18T00:57:24.549Z,2.67
2023-03-18T00:59:54.667Z,3.13
2023-03-18T01:02:23.771Z,2.83
2023-03-18T01:04:55.796Z,3.43
2023-03-18T01:07:44.618Z,4.63
2023-03-18T01:10:20.062Z,2.93
2023-03-18T01:12:57.379Z,3.43
2023-03-18T01:15:30.140Z,2.77
2023-03-18T01:18:04.609Z,3.30
2023-03-18T01:20:50.338Z,3.33
2023-03-18T01:23:24.293Z,2.73
2023-03-18T01:25:52.910Z,3.10
2023-03-18T01:28:22.428Z,3.03
2023-03-18T01:30:50.445Z,2.87
2023-03-18T01:33:19.019Z,2.83
2023-03-18T01:35:49.634Z,2.50
2023-03-18T01:38:17.710Z,2.90
2023-03-18T01:40:54.746Z,3.03
2023-03-18T01:43:37.345Z,2.90
2023-03-18T01:46:21.203Z,3.23
2023-03-18T01:49:00.650Z,2.80
2023-03-18T01:51:29.345Z,3.73
2023-03-18T01:53:59.655Z,3.43
2023-03-18T01:56:29.670Z,2.90
2023-03-18T01:58:59.127Z,3.60
2023-03-18T02:01:39.510Z,3.57
2023-03-18T02:04:22.407Z,3.30
2023-03-18T02:07:03.603Z,2.37
2023-03-18T02:09:32.994Z,3.00
2023-03-18T02:12:04.077Z,2.50
2023-03-18T02:14:32.468Z,3.73
2023-03-18T02:17:02.239Z,2.23
2023-03-18T02:20:18.184Z,3.23
2023-03-18T02:22:41.513Z,3.20
2023-03-18T02:25:18.654Z,3.07
2023-03-18T02:27:59.287Z,2.43
2023-03-18T02:30:33.426Z,2.90
2023-03-18T02:33:04.819Z,2.90
2023-03-18T02:35:35.526Z,2.50
2023-03-18T02:38:04.582Z,2.40
2023-03-18T02:40:36.154Z,3.20
2023-03-18T02:43:25.325Z,2.50
2023-03-18T02:46:10.095Z,2.50
2023-03-18T02:48:40.526Z,3.60
2023-03-18T02:51:16.924Z,2.40
2023-03-18T02:53:51.136Z,2.73
2023-03-18T02:56:20.595Z,2.53
2023-03-18T02:58:51.705Z,2.20
2023-03-18T03:01:20.322Z,2.63
2023-03-18T03:03:48.207Z,2.70
2023-03-18T03:06:17.044Z,2.43
2023-03-18T03:08:44.683Z,2.57
2023-03-18T03:11:12.675Z,2.97
2023-03-18T03:13:40.804Z,2.97
2023-03-18T03:16:10.879Z,2.57
2023-03-18T03:18:38.520Z,2.90
2023-03-18T03:21:07.425Z,2.33
2023-03-18T03:23:37.592Z,2.30
2023-03-18T03:26:06.826Z,2.77
2023-03-18T03:28:34.494Z,2.70
2023-03-18T03:31:02.699Z,2.97
2023-03-18T03:33:32.410Z,2.50
2023-03-18T03:36:00.279Z,3.47
2023-03-18T03:38:27.856Z,3.00
2023-03-18T03:40:55.619Z,3.03
2023-03-18T03:43:23.937Z,3.53
2023-03-18T03:45:51.596Z,2.20
2023-03-18T03:48:19.173Z,3.47
2023-03-18T03:50:49.754Z,2.70
2023-03-18T03:53:17.434Z,2.30
2023-03-18T03:55:45.121Z,2.83
2023-03-18T03:58:14.483Z,2.57
2023-03-18T04:00:42.330Z,2.70
2023-03-18T04:03:10.688Z,2.67
2023-03-18T04:05:40.164Z,3.60
2023-03-18T04:08:09.345Z,2.37
2023-03-18T04:10:37.004Z,2.10
2023-03-18T04:13:05.563Z,2.40
2023-03-18T04:15:33.732Z,3.70
2023-03-18T04:18:07.047Z,3.40
2023-03-18T04:20:35.946Z,2.70
2023-03-18T04:23:04.520Z,2.20
2023-03-18T04:25:33.735Z,2.53
2023-03-18T04:28:01.654Z,2.50
2023-03-18T04:30:30.961Z,3.53
2023-03-18T04:33:00.172Z,2.93
2023-03-18T04:35:28.269Z,2.63
2023-03-18T04:37:56.384Z,2.50
2023-03-18T04:40:24.228Z,2.47
2023-03-18T04:42:53.680Z,2.10
2023-03-18T04:45:21.517Z,2.97
2023-03-18T04:47:49.579Z,2.90
2023-03-18T04:50:17.753Z,2.70
2023-03-18T04:52:45.680Z,3.37
2023-03-18T04:55:14.258Z,2.60
2023-03-18T04:57:43.063Z,2.70
2023-03-18T05:00:14.234Z,2.57
2023-03-18T05:02:42.238Z,2.30
2023-03-18T05:05:10.695Z,2.77
2023-03-18T05:07:39.463Z,2.87
2023-03-18T05:10:07.971Z,4.03
2023-03-18T05:12:35.738Z,3.10
2023-03-18T05:15:03.851Z,3.93
2023-03-18T05:17:32.988Z,2.30
2023-03-18T05:20:00.717Z,2.87
2023-03-18T05:22:28.490Z,2.60
2023-03-18T05:24:56.146Z,2.80
2023-03-18T05:27:24.123Z,3.07
2023-03-18T05:29:51.766Z,2.53
2023-03-18T05:32:19.786Z,2.77
2023-03-18T05:34:49.151Z,3.00
2023-03-18T05:37:16.926Z,3.70
2023-03-18T05:39:45.865Z,2.27
2023-03-18T05:42:14.284Z,2.90
2023-03-18T05:44:42.289Z,3.13
2023-03-18T05:47:11.321Z,2.83
2023-03-18T05:49:40.190Z,2.77
2023-03-18T05:52:10.440Z,2.20
2023-03-18T05:54:38.254Z,3.30
2023-03-18T05:57:06.137Z,2.87
2023-03-18T05:59:35.536Z,3.23
2023-03-18T06:02:04.671Z,4.47
2023-03-18T06:04:32.418Z,3.23
2023-03-18T06:07:01.275Z,2.50
2023-03-18T06:09:31.352Z,3.03
2023-03-18T06:11:59.918Z,2.67
2023-03-18T06:14:29.383Z,3.43
2023-03-18T06:16:57.265Z,2.23
2023-03-18T06:19:25.837Z,3.30
2023-03-18T06:21:53.725Z,2.50
2023-03-18T06:24:22.231Z,3.37
2023-03-18T06:26:51.936Z,4.10
2023-03-18T06:29:20.342Z,3.07
2023-03-18T06:31:48.003Z,2.87
2023-03-18T06:34:15.862Z,2.50
2023-03-18T06:36:43.511Z,2.70
2023-03-18T06:39:12.408Z,2.97
2023-03-18T06:41:40.080Z,3.00
2023-03-18T06:44:09.178Z,2.63
2023-03-18T06:46:37.562Z,3.10
2023-03-18T06:49:06.641Z,3.30
2023-03-18T06:51:34.404Z,3.33
2023-03-18T06:54:02.240Z,3.40
2023-03-18T06:56:31.757Z,2.30
2023-03-18T06:58:59.464Z,2.63
2023-03-18T07:01:30.294Z,2.93
2023-03-18T07:04:00.916Z,2.70
2023-03-18T07:06:31.082Z,3.10
2023-03-18T07:08:59.851Z,2.90
2023-03-18T07:11:28.141Z,2.50
2023-03-18T07:13:55.760Z,3.27
2023-03-18T07:16:23.510Z,2.47
2023-03-18T07:18:52.698Z,2.83
2023-03-18T07:21:21.617Z,2.07
2023-03-18T07:23:49.686Z,2.83
2023-03-18T07:26:17.639Z,2.07
2023-03-18T07:28:45.221Z,2.43
2023-03-18T07:31:13.940Z,3.03
2023-03-18T07:33:41.667Z,2.67
2023-03-18T07:36:11.341Z,2.00
2023-03-18T07:38:40.299Z,2.80
2023-03-18T07:41:07.933Z,2.20
2023-03-18T07:43:37.009Z,2.77
2023-03-18T07:46:05.717Z,2.90
2023-03-18T07:48:34.638Z,2.20
2023-03-18T07:51:02.907Z,1.80
2023-03-18T07:53:32.770Z,2.13
2023-03-18T07:56:01.175Z,2.07
2023-03-18T07:58:29.319Z,1.70
2023-03-18T08:00:57.713Z,1.63
2023-03-18T08:03:25.398Z,2.33
2023-03-18T08:05:53.765Z,2.00
2023-03-18T08:08:22.038Z,2.10
2023-03-18T08:10:51.456Z,2.93
2023-03-18T08:13:19.077Z,1.73
2023-03-18T08:15:47.148Z,2.10
2023-03-18T08:18:16.397Z,2.23
2023-03-18T08:20:44.691Z,2.10
2023-03-18T08:23:13.271Z,2.30
2023-03-18T08:25:41.003Z,2.00
2023-03-18T08:28:12.133Z,2.20
2023-03-18T08:30:41.303Z,2.27
2023-03-18T08:33:09.280Z,2.00
2023-03-18T08:35:37.595Z,3.07
2023-03-18T08:38:05.863Z,1.90
2023-03-18T08:40:34.994Z,2.63
2023-03-18T08:43:02.604Z,2.40
2023-03-18T08:45:32.274Z,1.90
2023-03-18T08:48:02.002Z,2.23
2023-03-18T08:50:30.259Z,2.20
2023-03-18T08:52:59.688Z,2.73
2023-03-18T08:55:31.248Z,2.73
2023-03-18T08:57:59.673Z,2.50
2023-03-18T09:00:28.568Z,2.50
2023-03-18T09:02:57.970Z,2.40
2023-03-18T09:05:26.372Z,2.17
2023-03-18T09:07:54.462Z,2.47
2023-03-18T09:10:22.303Z,1.73
2023-03-18T09:12:50.933Z,2.33
2023-03-18T09:15:21.208Z,2.37
2023-03-18T09:18:07.911Z,1.90
2023-03-18T09:20:39.106Z,2.63
2023-03-18T09:23:07.292Z,2.17
2023-03-18T09:25:35.337Z,3.00
2023-03-18T09:28:03.532Z,2.00
2023-03-18T09:30:33.937Z,2.73
2023-03-18T09:33:02.228Z,2.00
2023-03-18T09:35:31.003Z,1.87
2023-03-18T09:38:01.425Z,2.03
2023-03-18T09:40:30.850Z,1.73
2023-03-18T09:43:06.514Z,1.60
2023-03-18T09:45:36.718Z,1.70
2023-03-18T09:48:23.894Z,1.50
2023-03-18T09:50:55.313Z,2.00
2023-03-18T09:53:27.271Z,2.23
2023-03-18T09:55:56.675Z,2.43
2023-03-18T09:58:27.917Z,2.10
2023-03-18T10:01:00.547Z,1.87
2023-03-18T10:03:36.264Z,1.80
2023-03-18T10:06:06.865Z,2.30
2023-03-18T10:08:51.095Z,1.70
2023-03-18T10:11:23.754Z,2.20
2023-03-18T10:14:03.770Z,2.80
2023-03-18T10:16:34.145Z,1.90
2023-03-18T10:19:02.177Z,1.93
2023-03-18T10:21:36.633Z,1.90
2023-03-18T10:24:10.802Z,1.97
2023-03-18T10:26:43.833Z,2.53
2023-03-18T10:29:20.885Z,2.00
2023-03-18T10:32:00.401Z,2.23
2023-03-18T10:34:33.303Z,2.50
2023-03-18T10:37:09.195Z,2.03
2023-03-18T10:39:38.954Z,1.90
2023-03-18T10:42:16.957Z,1.47
2023-03-18T10:44:45.647Z,1.60
2023-03-18T10:47:16.904Z,2.37
2023-03-18T10:49:48.088Z,1.93
2023-03-18T10:52:21.746Z,1.93
2023-03-18T10:54:52.668Z,1.77
2023-03-18T10:57:24.864Z,1.95
2023-03-18T10:59:53.389Z,2.30
2023-03-18T11:02:24.612Z,2.17
2023-03-18T11:04:55.790Z,1.83
2023-03-18T11:07:26.340Z,2.15
2023-03-18T11:09:57.308Z,1.95
2023-03-18T11:12:27.339Z,1.65
2023-03-18T11:14:56.537Z,1.95
2023-03-18T11:17:28.239Z,1.85
2023-03-18T11:20:05.935Z,1.08
2023-03-18T11:22:34.065Z,1.95
2023-03-18T11:25:08.261Z,1.73
2023-03-18T11:27:39.318Z,1.65
2023-03-18T11:30:18.699Z,1.45
2023-03-18T11:32:53.961Z,1.55
2023-03-18T11:35:22.954Z,2.05
2023-03-18T11:37:51.402Z,2.15
2023-03-18T11:40:21.493Z,1.85
2023-03-18T11:42:55.882Z,1.65
2023-03-18T11:45:44.189Z,2.22
2023-03-18T11:48:27.201Z,2.03
2023-03-18T11:51:13.205Z,2.28
2023-03-18T11:53:48.391Z,1.85
2023-03-18T11:56:20.506Z,1.73
2023-03-18T11:58:59.786Z,2.10
2023-03-18T12:01:32.845Z,1.33
2023-03-18T12:04:21.770Z,2.15
2023-03-18T12:06:54.667Z,1.65
2023-03-18T12:09:27.170Z,1.40
2023-03-18T12:12:00.932Z,1.52
2023-03-18T12:14:35.978Z,2.22
2023-03-18T12:17:13.598Z,1.73
2023-03-18T12:20:03.027Z,1.63
2023-03-18T12:22:50.203Z,1.65
2023-03-18T12:25:36.067Z,1.35
2023-03-18T12:28:08.471Z,1.05
2023-03-18T12:30:50.997Z,1.63
2023-03-18T12:33:26.645Z,1.35
2023-03-18T12:36:01.169Z,2.10
2023-03-18T12:39:01.361Z,1.30
2023-03-18T12:41:36.024Z,1.40
2023-03-18T12:44:13.712Z,1.57
2023-03-18T12:46:47.250Z,2.30
2023-03-18T12:49:19.878Z,1.77
2023-03-18T12:51:52.330Z,2.07
2023-03-18T12:54:23.823Z,2.63
2023-03-18T12:56:53.906Z,1.40
2023-03-18T12:59:25.773Z,2.08
2023-03-18T13:02:01.595Z,1.30
2023-03-18T13:04:33.331Z,1.50
2023-03-18T13:07:04.266Z,1.98
2023-03-18T13:09:41.123Z,1.20
2023-03-18T13:12:12.218Z,1.88
2023-03-18T13:14:48.348Z,1.50
2023-03-18T13:17:19.361Z,1.87
2023-03-18T13:19:49.051Z,1.50
2023-03-18T13:22:28.630Z,1.63
2023-03-18T13:25:06.518Z,1.45
2023-03-18T13:27:49.924Z,1.10
2023-03-18T13:30:24.056Z,1.20
2023-03-18T13:33:01.428Z,1.67
2023-03-18T13:35:46.239Z,1.60
2023-03-18T13:38:21.625Z,1.42
2023-03-18T13:40:54.883Z,1.73
2023-03-18T13:43:24.602Z,1.30
2023-03-18T13:45:54.565Z,2.00
2023-03-18T13:48:28.083Z,1.23
2023-03-18T13:50:58.558Z,1.90
2023-03-18T13:53:29.165Z,1.77
2023-03-18T13:56:08.685Z,1.13
2023-03-18T13:58:37.164Z,1.50
2023-03-18T14:01:16.777Z,1.90
2023-03-18T14:04:03.301Z,1.90
2023-03-18T14:06:48.644Z,1.73
2023-03-18T14:09:34.674Z,1.20
2023-03-18T14:12:06.744Z,1.50
2023-03-18T14:14:58.779Z,1.77
2023-03-18T14:17:46.162Z,1.77
2023-03-18T14:20:26.291Z,1.33
2023-03-18T14:22:55.182Z,1.30
2023-03-18T14:25:42.973Z,1.50
2023-03-18T14:28:19.460Z,1.47
2023-03-18T14:30:49.517Z,1.30
2023-03-18T14:33:34.683Z,1.20
2023-03-18T14:36:10.018Z,1.23
2023-03-18T14:38:49.651Z,1.40
2023-03-18T14:41:23.845Z,1.27
2023-03-18T14:43:59.398Z,1.30
2023-03-18T14:46:51.529Z,1.20
2023-03-18T14:49:37.711Z,1.67
2023-03-18T14:52:13.465Z,1.20
2023-03-18T14:54:46.162Z,2.10
2023-03-18T14:57:14.627Z,1.42
2023-03-18T14:59:43.049Z,1.50
2023-03-18T15:02:18.077Z,1.50
2023-03-18T15:04:52.601Z,1.10
2023-03-18T15:07:22.421Z,1.60
2023-03-18T15:09:51.646Z,1.30
2023-03-18T15:12:20.389Z,1.67
2023-03-18T15:14:48.356Z,1.40
2023-03-18T15:17:18.505Z,1.47
2023-03-18T15:19:47.662Z,1.40
2023-03-18T15:22:21.213Z,1.53
2023-03-18T15:24:51.881Z,1.50
2023-03-18T15:27:23.504Z,1.23
2023-03-18T15:29:54.426Z,1.50
2023-03-18T15:32:25.803Z,1.10
2023-03-18T15:34:54.824Z,1.20
2023-03-18T15:37:28.044Z,1.50
2023-03-18T15:39:59.052Z,1.30
2023-03-18T15:42:27.545Z,1.50
2023-03-18T15:44:58.995Z,1.47
2023-03-18T15:47:28.645Z,1.23
2023-03-18T15:49:57.937Z,1.67
2023-03-18T15:52:27.315Z,1.30
2023-03-18T15:54:57.111Z,1.43
2023-03-18T15:57:29.830Z,1.50
2023-03-18T15:59:58.633Z,1.70
2023-03-18T16:02:32.290Z,1.30
2023-03-18T16:05:07.931Z,1.20
2023-03-18T16:07:37.208Z,1.80
2023-03-18T16:10:05.249Z,1.57
2023-03-18T16:12:35.384Z,1.47
2023-03-18T16:15:06.903Z,1.30
2023-03-18T16:17:36.160Z,1.97
2023-03-18T16:20:06.655Z,1.70
2023-03-18T16:22:34.944Z,1.50
2023-03-18T16:25:02.665Z,1.10
2023-03-18T16:27:33.176Z,1.60
2023-03-18T16:30:02.889Z,1.10
2023-03-18T16:32:31.612Z,1.40
2023-03-18T16:34:59.461Z,1.50
2023-03-18T16:37:28.118Z,1.20
2023-03-18T16:39:56.495Z,1.40
2023-03-18T16:42:25.380Z,1.63
2023-03-18T16:44:53.278Z,1.20
2023-03-18T16:47:24.195Z,1.60
2023-03-18T16:49:52.519Z,1.40
2023-03-18T16:52:20.964Z,2.17
2023-03-18T16:54:49.098Z,2.10
2023-03-18T16:57:18.551Z,1.40
2023-03-18T16:59:48.394Z,2.23
2023-03-18T17:02:27.001Z,2.40
2023-03-18T17:04:56.145Z,1.70
2023-03-18T17:07:23.945Z,1.40
2023-03-18T17:09:52.156Z,1.60
2023-03-18T17:12:20.060Z,1.80
2023-03-18T17:14:52.339Z,1.67
2023-03-18T17:17:23.156Z,1.70
2023-03-18T17:19:52.082Z,2.43
2023-03-18T17:22:24.408Z,2.77
2023-03-18T17:24:52.426Z,1.93
2023-03-18T17:27:22.135Z,1.70
2023-03-18T17:29:50.477Z,1.87
2023-03-18T17:32:19.809Z,2.83
2023-03-18T17:34:48.805Z,2.60
2023-03-18T17:37:16.878Z,3.13
2023-03-18T17:39:46.210Z,2.27
2023-03-18T17:42:25.648Z,2.20
2023-03-18T17:44:53.569Z,4.37
2023-03-18T17:47:21.512Z,4.37
2023-03-18T17:49:49.306Z,4.50
2023-03-18T17:52:20.344Z,3.77
2023-03-18T17:54:49.579Z,3.00
2023-03-18T17:57:18.322Z,2.67
2023-03-18T17:59:47.105Z,2.47
2023-03-18T18:02:18.304Z,2.17
2023-03-18T18:04:48.469Z,2.33
2023-03-18T18:07:18.227Z,2.63
2023-03-18T18:09:47.078Z,2.80
2023-03-18T18:12:19.296Z,2.20
2023-03-18T18:14:48.840Z,2.07
2023-03-18T18:17:18.454Z,3.43
2023-03-18T18:19:46.338Z,3.40
2023-03-18T18:22:16.406Z,2.80
2023-03-18T18:24:46.126Z,2.50
2023-03-18T18:27:15.215Z,2.23
2023-03-18T18:29:46.166Z,2.47
2023-03-18T18:32:15.698Z,3.27
2023-03-18T18:34:43.544Z,2.77
2023-03-18T18:37:12.174Z,2.20
2023-03-18T18:39:40.289Z,2.83
2023-03-18T18:42:08.288Z,2.93
2023-03-18T18:44:36.343Z,2.47
2023-03-18T18:47:07.296Z,3.20
2023-03-18T18:49:35.324Z,3.70
2023-03-18T18:52:05.195Z,3.27
2023-03-18T18:54:33.426Z,2.87
2023-03-18T18:57:02.215Z,2.27
2023-03-18T18:59:32.320Z,2.60
2023-03-18T19:02:03.660Z,2.27
2023-03-18T19:04:34.055Z,2.30
2023-03-18T19:07:04.885Z,2.50
2023-03-18T19:09:32.827Z,2.80
2023-03-18T19:12:00.988Z,2.57
2023-03-18T19:14:29.963Z,2.03
2023-03-18T19:16:59.041Z,3.77
2023-03-18T19:19:28.933Z,2.20
2023-03-18T19:21:59.036Z,2.13
2023-03-18T19:24:28.747Z,2.03
2023-03-18T19:26:57.616Z,2.60
2023-03-18T19:29:26.690Z,2.73
2023-03-18T19:31:55.688Z,2.00
2023-03-18T19:34:24.026Z,2.13
2023-03-18T19:36:54.173Z,2.33
2023-03-18T19:39:24.731Z,2.13
2023-03-18T19:41:52.926Z,2.37
2023-03-18T19:44:21.766Z,2.73
2023-03-18T19:46:50.212Z,3.10
2023-03-18T19:49:20.652Z,2.67
2023-03-18T19:51:50.089Z,2.40
2023-03-18T19:54:27.302Z,3.47
2023-03-18T19:56:56.049Z,2.60
2023-03-18T19:59:33.548Z,2.20
2023-03-18T20:02:05.109Z,2.10
2023-03-18T20:04:33.057Z,2.70
2023-03-18T20:07:01.635Z,2.43
2023-03-18T20:09:31.635Z,3.30
2023-03-18T20:12:04.757Z,2.67
2023-03-18T20:14:37.885Z,2.70
2023-03-18T20:17:25.937Z,2.57
2023-03-18T20:19:53.924Z,2.10
2023-03-18T20:22:23.069Z,3.30
2023-03-18T20:24:52.490Z,2.50
2023-03-18T20:27:20.278Z,2.57
2023-03-18T20:29:48.233Z,2.13
2023-03-18T20:32:16.061Z,3.37
2023-03-18T20:34:44.111Z,2.20
2023-03-18T20:37:22.918Z,2.50
2023-03-18T20:39:52.290Z,2.30
2023-03-18T20:42:21.631Z,2.60
2023-03-18T20:44:49.641Z,2.93
2023-03-18T20:47:17.694Z,2.20
2023-03-18T20:49:46.259Z,4.60
2023-03-18T20:52:22.335Z,2.47
2023-03-18T20:54:49.916Z,3.87
2023-03-18T20:57:20.034Z,3.50
2023-03-18T20:59:48.182Z,2.83
2023-03-18T21:02:27.134Z,2.30
2023-03-18T21:04:55.133Z,2.63
2023-03-18T21:07:23.250Z,4.53
2023-03-18T21:09:51.543Z,3.20
2023-03-18T21:12:21.454Z,2.90
2023-03-18T21:14:49.374Z,3.40
2023-03-18T21:17:21.190Z,3.03
2023-03-18T21:19:49.141Z,3.20
2023-03-18T21:22:20.786Z,3.90
2023-03-18T21:24:49.334Z,2.80
2023-03-18T21:27:20.002Z,4.10
2023-03-18T21:29:49.820Z,2.53
2023-03-18T21:32:27.970Z,3.27
2023-03-18T21:34:55.885Z,2.97
2023-03-18T21:37:25.615Z,3.23
2023-03-18T21:39:53.998Z,2.93
2023-03-18T21:42:24.682Z,4.10
2023-03-18T21:44:53.924Z,2.43
2023-03-18T21:47:23.058Z,2.97
2023-03-18T21:49:51.312Z,3.77
2023-03-18T21:52:20.916Z,3.97
2023-03-18T21:54:48.772Z,3.57
2023-03-18T21:57:18.445Z,3.30
2023-03-18T21:59:46.771Z,2.87
2023-03-18T22:02:22.273Z,4.70
2023-03-18T22:04:50.660Z,3.40
2023-03-18T22:07:18.694Z,2.77
2023-03-18T22:09:46.307Z,4.30
2023-03-18T22:12:15.524Z,3.10
2023-03-18T22:14:43.130Z,3.40
2023-03-18T22:17:29.206Z,3.43
2023-03-18T22:19:57.492Z,3.10
2023-03-18T22:22:28.384Z,3.17
2023-03-18T22:24:56.810Z,3.33
2023-03-18T22:27:25.432Z,2.93
2023-03-18T22:29:53.764Z,3.53
2023-03-18T22:32:39.929Z,3.17
2023-03-18T22:35:15.308Z,2.83
2023-03-18T22:37:43.513Z,3.77
2023-03-18T22:40:16.412Z,4.40
2023-03-18T22:42:45.540Z,3.20
2023-03-18T22:45:20.604Z,3.17
2023-03-18T22:47:48.289Z,3.07
2023-03-18T22:50:18.179Z,4.07
2023-03-18T22:52:46.301Z,3.47
2023-03-18T22:55:18.327Z,4.13
2023-03-18T22:57:46.154Z,4.20
2023-03-18T23:00:24.723Z,2.60
2023-03-18T23:02:53.488Z,2.33
2023-03-18T23:05:23.483Z,2.40
2023-03-18T23:07:51.619Z,2.23
2023-03-18T23:10:20.386Z,2.70
2023-03-18T23:12:48.095Z,3.00
2023-03-18T23:15:17.957Z,3.07
2023-03-18T23:17:45.895Z,4.40
2023-03-18T23:20:14.737Z,3.00
2023-03-18T23:22:45.251Z,3.77
2023-03-18T23:25:14.848Z,2.73
2023-03-18T23:27:43.151Z,3.10
2023-03-18T23:30:11.569Z,3.03
2023-03-18T23:32:39.875Z,4.80
2023-03-18T23:35:08.752Z,3.13
2023-03-18T23:37:37.599Z,3.77
2023-03-18T23:40:08.732Z,2.60
2023-03-18T23:42:36.751Z,2.10
2023-03-18T23:45:05.361Z,2.57
2023-03-18T23:47:34.616Z,2.67
2023-03-18T23:50:02.226Z,4.10
2023-03-18T23:52:29.998Z,5.00
2023-03-18T23:54:57.974Z,3.07
2023-03-18T23:57:28.549Z,2.57
2023-03-18T23:59:56.420Z,3.20
